sensor_id;sensor_type;location;lat;lon;timestamp;pressure;altitude;pressure_sealevel;temperature;humidity
36980;BME280;22891;50.562;7.272;2023-01-29T00:01:32;101603.00;;;-1.79;nan
36980;BME280;22891;50.562;7.272;2023-01-29T00:03:58;101615.00;;;-1.75;nan
36980;BME280;22891;50.562;7.272;2023-01-29T00:06:24;101621.00;;;-1.70;nan
36980;BME280;22891;50.562;7.272;2023-01-29T00:08:50;101611.00;;;-1.81;nan
36980;BME280;22891;50.562;7.272;2023-01-29T00:11:16;101609.00;;;-1.80;nan
36980;BME280;22891;50.562;7.272;2023-01-29T00:13:45;101603.00;;;-1.74;nan
36980;BME280;22891;50.562;7.272;2023-01-29T00:16:12;101592.00;;;-2.00;nan
36980;BME280;22891;50.562;7.272;2023-01-29T00:18:39;101604.00;;;-1.97;nan
36980;BME280;22891;50.562;7.272;2023-01-29T00:21:10;101602.00;;;-1.89;nan
36980;BME280;22891;50.562;7.272;2023-01-29T00:23:37;101595.00;;;-1.96;nan
36980;BME280;22891;50.562;7.272;2023-01-29T00:26:03;101596.00;;;-2.02;nan
36980;BME280;22891;50.562;7.272;2023-01-29T00:28:29;101597.00;;;-2.01;nan
36980;BME280;22891;50.562;7.272;2023-01-29T00:30:55;101602.00;;;-2.09;nan
36980;BME280;22891;50.562;7.272;2023-01-29T00:33:21;101590.00;;;-2.24;nan
36980;BME280;22891;50.562;7.272;2023-01-29T00:35:47;101581.00;;;-2.26;nan
36980;BME280;22891;50.562;7.272;2023-01-29T00:38:13;101559.00;;;-2.36;nan
36980;BME280;22891;50.562;7.272;2023-01-29T00:40:40;101568.00;;;-2.30;nan
36980;BME280;22891;50.562;7.272;2023-01-29T00:43:25;101550.00;;;-2.30;nan
36980;BME280;22891;50.562;7.272;2023-01-29T00:46:09;101542.00;;;-2.33;nan
36980;BME280;22891;50.562;7.272;2023-01-29T00:48:35;101537.00;;;-2.29;nan
36980;BME280;22891;50.562;7.272;2023-01-29T00:51:02;101543.00;;;-2.25;nan
36980;BME280;22891;50.562;7.272;2023-01-29T00:53:28;101536.00;;;-2.32;nan
36980;BME280;22891;50.562;7.272;2023-01-29T00:55:55;101530.00;;;-2.36;nan
36980;BME280;22891;50.562;7.272;2023-01-29T00:58:21;101528.00;;;-2.45;nan
36980;BME280;22891;50.562;7.272;2023-01-29T01:00:50;101512.00;;;-2.33;nan
36980;BME280;22891;50.562;7.272;2023-01-29T01:03:19;101510.00;;;-2.47;nan
36980;BME280;22891;50.562;7.272;2023-01-29T01:05:45;101499.00;;;-2.44;nan
36980;BME280;22891;50.562;7.272;2023-01-29T01:08:11;101499.00;;;-2.47;nan
36980;BME280;22891;50.562;7.272;2023-01-29T01:11:01;101486.00;;;-2.45;nan
36980;BME280;22891;50.562;7.272;2023-01-29T01:13:30;101491.00;;;-2.46;nan
36980;BME280;22891;50.562;7.272;2023-01-29T01:15:55;101498.00;;;-2.55;nan
36980;BME280;22891;50.562;7.272;2023-01-29T01:18:21;101484.00;;;-2.60;nan
36980;BME280;22891;50.562;7.272;2023-01-29T01:20:47;101484.00;;;-2.53;nan
36980;BME280;22891;50.562;7.272;2023-01-29T01:23:17;101484.00;;;-2.59;nan
36980;BME280;22891;50.562;7.272;2023-01-29T01:25:44;101476.00;;;-2.44;nan
36980;BME280;22891;50.562;7.272;2023-01-29T01:28:10;101479.00;;;-2.50;nan
36980;BME280;22891;50.562;7.272;2023-01-29T01:30:36;101477.00;;;-2.54;nan
36980;BME280;22891;50.562;7.272;2023-01-29T01:33:05;101473.00;;;-2.61;nan
36980;BME280;22891;50.562;7.272;2023-01-29T01:35:31;101472.00;;;-2.59;nan
36980;BME280;22891;50.562;7.272;2023-01-29T01:37:59;101478.00;;;-2.64;nan
36980;BME280;22891;50.562;7.272;2023-01-29T01:40:25;101465.00;;;-2.73;nan
36980;BME280;22891;50.562;7.272;2023-01-29T01:42:53;101466.00;;;-2.74;nan
36980;BME280;22891;50.562;7.272;2023-01-29T01:45:28;101459.00;;;-2.71;nan
36980;BME280;22891;50.562;7.272;2023-01-29T01:48:02;101466.00;;;-2.69;nan
36980;BME280;22891;50.562;7.272;2023-01-29T01:50:36;101463.00;;;-2.84;nan
36980;BME280;22891;50.562;7.272;2023-01-29T01:53:10;101462.00;;;-2.78;nan
36980;BME280;22891;50.562;7.272;2023-01-29T01:55:47;101452.00;;;-2.64;nan
36980;BME280;22891;50.562;7.272;2023-01-29T01:58:24;101456.00;;;-2.73;nan
36980;BME280;22891;50.562;7.272;2023-01-29T02:00:51;101468.00;;;-2.84;nan
36980;BME280;22891;50.562;7.272;2023-01-29T02:03:19;101459.00;;;-2.77;nan
36980;BME280;22891;50.562;7.272;2023-01-29T02:06:08;101465.00;;;-2.78;nan
36980;BME280;22891;50.562;7.272;2023-01-29T02:09:10;101463.00;;;-2.90;nan
36980;BME280;22891;50.562;7.272;2023-01-29T02:11:56;101450.00;;;-2.92;nan
36980;BME280;22891;50.562;7.272;2023-01-29T02:14:21;101445.00;;;-2.88;nan
36980;BME280;22891;50.562;7.272;2023-01-29T02:16:48;101444.00;;;-2.89;nan
36980;BME280;22891;50.562;7.272;2023-01-29T02:19:47;101447.00;;;-2.98;nan
36980;BME280;22891;50.562;7.272;2023-01-29T02:28:53;101447.00;;;-3.15;nan
36980;BME280;22891;50.562;7.272;2023-01-29T02:32:00;101432.00;;;-3.19;nan
36980;BME280;22891;50.562;7.272;2023-01-29T02:35:56;101426.00;;;-3.16;nan
36980;BME280;22891;50.562;7.272;2023-01-29T02:43:54;101437.00;;;-3.17;nan
36980;BME280;22891;50.562;7.272;2023-01-29T02:48:19;101420.00;;;-3.20;nan
36980;BME280;22891;50.562;7.272;2023-01-29T02:50:57;101423.00;;;-3.16;nan
36980;BME280;22891;50.562;7.272;2023-01-29T02:53:31;101425.00;;;-3.14;nan
36980;BME280;22891;50.562;7.272;2023-01-29T02:56:10;101420.00;;;-3.20;nan
36980;BME280;22891;50.562;7.272;2023-01-29T02:58:45;101412.00;;;-3.26;nan
36980;BME280;22891;50.562;7.272;2023-01-29T03:01:17;101406.00;;;-3.22;nan
36980;BME280;22891;50.562;7.272;2023-01-29T03:03:50;101399.00;;;-3.18;nan
36980;BME280;22891;50.562;7.272;2023-01-29T03:06:31;101398.00;;;-3.28;nan
36980;BME280;22891;50.562;7.272;2023-01-29T03:09:04;101395.00;;;-3.30;nan
36980;BME280;22891;50.562;7.272;2023-01-29T03:11:39;101400.00;;;-3.16;nan
36980;BME280;22891;50.562;7.272;2023-01-29T03:14:17;101409.00;;;-3.31;nan
36980;BME280;22891;50.562;7.272;2023-01-29T03:16:52;101398.00;;;-3.34;nan
36980;BME280;22891;50.562;7.272;2023-01-29T03:19:29;101394.00;;;-3.20;nan
36980;BME280;22891;50.562;7.272;2023-01-29T03:22:00;101404.00;;;-3.43;nan
36980;BME280;22891;50.562;7.272;2023-01-29T03:25:01;101408.00;;;-3.34;nan
36980;BME280;22891;50.562;7.272;2023-01-29T03:27:57;101415.00;;;-3.35;nan
36980;BME280;22891;50.562;7.272;2023-01-29T03:30:49;101402.00;;;-3.37;nan
36980;BME280;22891;50.562;7.272;2023-01-29T03:37:19;101408.00;;;-3.33;nan
36980;BME280;22891;50.562;7.272;2023-01-29T03:39:46;101408.00;;;-3.40;nan
36980;BME280;22891;50.562;7.272;2023-01-29T03:42:27;101410.00;;;-3.36;nan
36980;BME280;22891;50.562;7.272;2023-01-29T03:45:56;101391.00;;;-3.30;nan
36980;BME280;22891;50.562;7.272;2023-01-29T03:48:34;101440.00;;;-3.40;nan
36980;BME280;22891;50.562;7.272;2023-01-29T03:54:17;101449.00;;;-3.53;nan
36980;BME280;22891;50.562;7.272;2023-01-29T03:57:09;101444.00;;;-3.70;nan
36980;BME280;22891;50.562;7.272;2023-01-29T03:59:52;101450.00;;;-3.54;nan
36980;BME280;22891;50.562;7.272;2023-01-29T04:02:25;101449.00;;;-3.65;nan
36980;BME280;22891;50.562;7.272;2023-01-29T04:04:55;101451.00;;;-3.79;nan
36980;BME280;22891;50.562;7.272;2023-01-29T04:07:23;101423.00;;;-3.87;nan
36980;BME280;22891;50.562;7.272;2023-01-29T04:09:59;101410.00;;;-3.91;nan
36980;BME280;22891;50.562;7.272;2023-01-29T04:12:29;101405.00;;;-3.87;nan
36980;BME280;22891;50.562;7.272;2023-01-29T04:15:00;101383.00;;;-3.90;nan
36980;BME280;22891;50.562;7.272;2023-01-29T04:17:38;101370.00;;;-3.90;nan
36980;BME280;22891;50.562;7.272;2023-01-29T04:20:06;101359.00;;;-3.88;nan
36980;BME280;22891;50.562;7.272;2023-01-29T04:22:37;101361.00;;;-3.84;nan
36980;BME280;22891;50.562;7.272;2023-01-29T04:25:15;101349.00;;;-3.74;nan
36980;BME280;22891;50.562;7.272;2023-01-29T04:28:04;101343.00;;;-3.82;nan
36980;BME280;22891;50.562;7.272;2023-01-29T04:31:06;101337.00;;;-3.89;nan
36980;BME280;22891;50.562;7.272;2023-01-29T04:33:52;101320.00;;;-3.73;nan
36980;BME280;22891;50.562;7.272;2023-01-29T04:39:55;101326.00;;;-3.75;nan
36980;BME280;22891;50.562;7.272;2023-01-29T04:42:35;101340.00;;;-3.54;nan
36980;BME280;22891;50.562;7.272;2023-01-29T04:45:14;101343.00;;;-3.52;nan
36980;BME280;22891;50.562;7.272;2023-01-29T04:49:16;101351.00;;;-3.59;nan
36980;BME280;22891;50.562;7.272;2023-01-29T04:58:05;101353.00;;;-3.58;nan
36980;BME280;22891;50.562;7.272;2023-01-29T05:00:42;101358.00;;;-3.93;nan
36980;BME280;22891;50.562;7.272;2023-01-29T05:03:11;101351.00;;;-3.90;nan
36980;BME280;22891;50.562;7.272;2023-01-29T05:05:40;101347.00;;;-3.79;nan
36980;BME280;22891;50.562;7.272;2023-01-29T05:08:08;101344.00;;;-3.62;nan
36980;BME280;22891;50.562;7.272;2023-01-29T05:10:36;101336.00;;;-3.77;nan
36980;BME280;22891;50.562;7.272;2023-01-29T05:13:05;101335.00;;;-3.76;nan
36980;BME280;22891;50.562;7.272;2023-01-29T05:18:26;101325.00;;;-3.35;nan
36980;BME280;22891;50.562;7.272;2023-01-29T05:20:55;101333.00;;;-3.41;nan
36980;BME280;22891;50.562;7.272;2023-01-29T05:23:22;101338.00;;;-3.63;nan
36980;BME280;22891;50.562;7.272;2023-01-29T05:25:49;101329.00;;;-3.63;nan
36980;BME280;22891;50.562;7.272;2023-01-29T05:28:16;101335.00;;;-3.49;nan
36980;BME280;22891;50.562;7.272;2023-01-29T05:30:47;101320.00;;;-3.41;nan
36980;BME280;22891;50.562;7.272;2023-01-29T05:33:22;101318.00;;;-3.30;nan
36980;BME280;22891;50.562;7.272;2023-01-29T05:35:49;101315.00;;;-3.23;nan
36980;BME280;22891;50.562;7.272;2023-01-29T05:38:15;101309.00;;;-3.23;nan
36980;BME280;22891;50.562;7.272;2023-01-29T05:40:42;101312.00;;;-3.09;nan
36980;BME280;22891;50.562;7.272;2023-01-29T05:43:19;101309.00;;;-3.22;nan
36980;BME280;22891;50.562;7.272;2023-01-29T05:45:58;101313.00;;;-3.18;nan
36980;BME280;22891;50.562;7.272;2023-01-29T05:48:28;101311.00;;;-3.28;nan
36980;BME280;22891;50.562;7.272;2023-01-29T05:50:58;101318.00;;;-3.36;nan
36980;BME280;22891;50.562;7.272;2023-01-29T05:53:24;101308.00;;;-3.33;nan
36980;BME280;22891;50.562;7.272;2023-01-29T05:55:49;101299.00;;;-3.18;nan
36980;BME280;22891;50.562;7.272;2023-01-29T05:58:15;101282.00;;;-3.09;nan
36980;BME280;22891;50.562;7.272;2023-01-29T06:00:44;101279.00;;;-3.11;nan
36980;BME280;22891;50.562;7.272;2023-01-29T06:03:09;101280.00;;;-3.12;nan
36980;BME280;22891;50.562;7.272;2023-01-29T06:05:38;101268.00;;;-2.96;nan
36980;BME280;22891;50.562;7.272;2023-01-29T06:08:05;101278.00;;;-3.10;nan
36980;BME280;22891;50.562;7.272;2023-01-29T06:10:32;101274.00;;;-2.91;nan
36980;BME280;22891;50.562;7.272;2023-01-29T06:12:57;101286.00;;;-2.91;nan
36980;BME280;22891;50.562;7.272;2023-01-29T06:15:23;101293.00;;;-2.99;nan
36980;BME280;22891;50.562;7.272;2023-01-29T06:17:53;101287.00;;;-2.72;nan
36980;BME280;22891;50.562;7.272;2023-01-29T06:20:19;101295.00;;;-2.69;nan
36980;BME280;22891;50.562;7.272;2023-01-29T06:22:44;101296.00;;;-2.90;nan
36980;BME280;22891;50.562;7.272;2023-01-29T06:25:10;101294.00;;;-2.99;nan
36980;BME280;22891;50.562;7.272;2023-01-29T06:27:36;101281.00;;;-2.97;nan
36980;BME280;22891;50.562;7.272;2023-01-29T06:30:05;101292.00;;;-2.98;nan
36980;BME280;22891;50.562;7.272;2023-01-29T06:32:32;101296.00;;;-2.73;nan
36980;BME280;22891;50.562;7.272;2023-01-29T06:34:58;101313.00;;;-2.99;nan
36980;BME280;22891;50.562;7.272;2023-01-29T06:37:23;101319.00;;;-3.08;nan
36980;BME280;22891;50.562;7.272;2023-01-29T06:39:49;101299.00;;;-2.94;nan
36980;BME280;22891;50.562;7.272;2023-01-29T06:42:14;101299.00;;;-3.00;nan
36980;BME280;22891;50.562;7.272;2023-01-29T06:44:40;101280.00;;;-2.85;nan
36980;BME280;22891;50.562;7.272;2023-01-29T06:47:06;101288.00;;;-2.75;nan
36980;BME280;22891;50.562;7.272;2023-01-29T06:49:31;101293.00;;;-2.73;nan
36980;BME280;22891;50.562;7.272;2023-01-29T06:51:57;101289.00;;;-2.79;nan
36980;BME280;22891;50.562;7.272;2023-01-29T06:54:23;101293.00;;;-2.89;nan
36980;BME280;22891;50.562;7.272;2023-01-29T06:56:48;101293.00;;;-2.96;nan
36980;BME280;22891;50.562;7.272;2023-01-29T06:59:14;101273.00;;;-2.74;nan
